createdAt,value
2019-02-25T00:02:08.793Z,72.10
2019-02-25T00:04:37.184Z,75.50
2019-02-25T00:07:05.568Z,72.90
2019-02-25T00:09:33.960Z,64.60
2019-02-25T00:12:02.340Z,58.10
2019-02-25T00:14:30.793Z,58.50
2019-02-25T00:16:59.172Z,60.00
2019-02-25T00:19:27.555Z,57.10
2019-02-25T00:21:55.936Z,56.60
2019-02-25T00:24:24.325Z,57.10
2019-02-25T00:26:52.729Z,56.30
2019-02-25T00:29:21.132Z,55.20
2019-02-25T00:31:49.567Z,55.40
2019-02-25T00:34:17.968Z,57.70
2019-02-25T00:36:46.349Z,62.10
2019-02-25T00:39:14.791Z,61.40
2019-02-25T00:41:43.179Z,56.70
2019-02-25T00:44:11.574Z,56.00
2019-02-25T00:46:39.964Z,57.50
2019-02-25T00:49:08.381Z,56.40
2019-02-25T00:51:36.749Z,57.60
2019-02-25T00:54:05.140Z,57.90
2019-02-25T00:56:33.530Z,61.00
2019-02-25T00:59:01.914Z,63.70
2019-02-25T01:01:30.303Z,58.00
2019-02-25T01:03:58.681Z,56.50
2019-02-25T01:06:27.142Z,56.20
2019-02-25T01:08:55.519Z,54.00
2019-02-25T01:11:23.919Z,55.40
2019-02-25T01:13:52.298Z,60.60
2019-02-25T01:16:21.024Z,55.40
2019-02-25T01:18:49.476Z,54.80
2019-02-25T01:21:17.870Z,55.00
2019-02-25T01:23:46.577Z,54.90
2019-02-25T01:26:14.965Z,53.90
2019-02-25T01:28:43.344Z,56.00
2019-02-25T01:31:11.739Z,58.80
2019-02-25T01:33:40.119Z,56.10
2019-02-25T01:36:08.509Z,57.70
2019-02-25T01:38:36.887Z,56.90
2019-02-25T01:41:05.275Z,57.20
2019-02-25T01:43:33.658Z,58.10
2019-02-25T01:46:02.116Z,58.70
2019-02-25T01:48:30.492Z,66.00
2019-02-25T01:50:58.889Z,72.80
2019-02-25T01:53:27.268Z,67.20
2019-02-25T01:55:55.660Z,68.30
2019-02-25T01:58:24.040Z,60.90
2019-02-25T02:00:52.430Z,63.90
2019-02-25T02:03:20.803Z,65.20
2019-02-25T02:05:49.200Z,62.00
2019-02-25T02:08:17.597Z,61.10
2019-02-25T02:10:45.971Z,60.70
2019-02-25T02:13:14.677Z,63.60
2019-02-25T02:15:43.152Z,59.50
2019-02-25T02:18:11.541Z,60.10
2019-02-25T02:20:39.922Z,59.40
2019-02-25T02:23:08.309Z,62.70
2019-02-25T02:25:36.688Z,64.50
2019-02-25T02:28:05.157Z,60.50
2019-02-25T02:30:33.537Z,58.90
2019-02-25T02:33:01.919Z,59.10
2019-02-25T02:35:30.302Z,61.00
2019-02-25T02:37:58.803Z,60.50
2019-02-25T02:40:27.166Z,61.70
2019-02-25T02:43:00.842Z,63.20
2019-02-25T02:45:43.789Z,66.80
2019-02-25T02:48:18.112Z,63.00
2019-02-25T02:50:46.498Z,62.20
2019-02-25T02:53:14.894Z,64.50
2019-02-25T02:55:43.268Z,64.00
2019-02-25T02:58:11.651Z,66.00
2019-02-25T03:00:40.044Z,64.00
2019-02-25T03:03:08.437Z,63.10
2019-02-25T03:05:36.885Z,62.00
2019-02-25T03:08:05.573Z,61.70
2019-02-25T03:10:33.953Z,63.60
2019-02-25T03:13:02.346Z,62.80
2019-02-25T03:15:30.729Z,61.70
2019-02-25T03:17:59.138Z,63.10
2019-02-25T03:20:27.504Z,62.10
2019-02-25T03:22:55.895Z,62.20
2019-02-25T03:25:24.360Z,60.60
2019-02-25T03:27:52.742Z,61.40
2019-02-25T03:30:22.108Z,63.30
2019-02-25T03:32:50.599Z,61.00
2019-02-25T03:35:19.297Z,61.40
2019-02-25T03:37:47.677Z,61.30
2019-02-25T03:40:18.110Z,61.50
2019-02-25T03:42:46.797Z,62.80
2019-02-25T03:45:16.835Z,60.40
2019-02-25T03:47:45.281Z,62.00
2019-02-25T03:50:13.817Z,61.80
2019-02-25T03:52:42.337Z,61.20
2019-02-25T03:55:18.266Z,61.80
2019-02-25T03:57:46.759Z,61.00
2019-02-25T04:00:17.512Z,61.70
2019-02-25T04:02:45.944Z,61.60
2019-02-25T04:05:14.341Z,63.60
2019-02-25T04:07:42.780Z,62.40
2019-02-25T04:10:12.916Z,61.20
2019-02-25T04:12:41.297Z,64.10
2019-02-25T04:15:23.031Z,60.80
2019-02-25T04:17:51.428Z,61.50
2019-02-25T04:20:20.047Z,60.60
2019-02-25T04:22:48.427Z,62.20
2019-02-25T04:25:16.810Z,62.30
2019-02-25T04:27:45.191Z,63.20
2019-02-25T04:30:15.338Z,61.00
2019-02-25T04:32:43.775Z,62.70
2019-02-25T04:35:13.513Z,63.50
2019-02-25T04:37:42.037Z,62.30
2019-02-25T04:40:12.571Z,62.90
2019-02-25T04:42:40.168Z,63.40
2019-02-25T04:45:16.940Z,63.50
2019-02-25T04:47:45.330Z,63.10
2019-02-25T04:50:14.254Z,67.60
2019-02-25T04:52:42.631Z,66.10
2019-02-25T04:55:13.088Z,67.50
2019-02-25T04:57:40.691Z,65.00
2019-02-25T05:00:20.972Z,65.00
2019-02-25T05:02:49.344Z,63.60
2019-02-25T05:05:17.740Z,65.10
2019-02-25T05:07:46.118Z,64.50
2019-02-25T05:10:15.751Z,65.10
2019-02-25T05:12:54.615Z,65.80
2019-02-25T05:15:27.273Z,68.00
2019-02-25T05:17:55.651Z,65.80
2019-02-25T05:20:24.052Z,68.70
2019-02-25T05:22:52.421Z,67.70
2019-02-25T05:25:20.800Z,67.30
2019-02-25T05:27:49.205Z,65.30
2019-02-25T05:30:17.855Z,65.80
2019-02-25T05:32:46.278Z,66.00
2019-02-25T05:35:14.784Z,66.80
2019-02-25T05:37:43.253Z,67.20
2019-02-25T05:40:16.629Z,66.40
2019-02-25T05:42:45.025Z,66.50
2019-02-25T05:45:15.041Z,65.90
2019-02-25T05:47:43.505Z,65.40
2019-02-25T05:50:13.929Z,66.40
2019-02-25T05:52:42.385Z,65.70
2019-02-25T05:55:13.304Z,64.80
2019-02-25T05:57:41.750Z,65.80
2019-02-25T06:00:17.100Z,65.50
2019-02-25T06:02:45.565Z,67.30
2019-02-25T06:05:13.941Z,71.10
2019-02-25T06:07:42.328Z,74.30
2019-02-25T06:10:12.253Z,70.60
2019-02-25T06:12:40.640Z,70.80
2019-02-25T06:15:12.264Z,72.00
2019-02-25T06:17:40.656Z,76.40
2019-02-25T06:20:14.190Z,77.80
2019-02-25T06:22:42.585Z,75.40
2019-02-25T06:25:12.520Z,74.90
2019-02-25T06:27:40.974Z,79.00
2019-02-25T06:30:20.493Z,77.40
2019-02-25T06:32:48.911Z,80.30
2019-02-25T06:35:17.304Z,75.90
2019-02-25T06:37:45.685Z,78.50
2019-02-25T06:40:16.575Z,77.80
2019-02-25T06:42:44.969Z,77.60
2019-02-25T06:45:15.689Z,80.00
2019-02-25T06:47:44.082Z,78.00
2019-02-25T06:50:12.606Z,77.00
2019-02-25T06:52:40.996Z,79.00
2019-02-25T06:55:16.200Z,77.90
2019-02-25T06:57:44.598Z,76.40
2019-02-25T07:00:15.856Z,79.40
2019-02-25T07:02:44.603Z,78.10
2019-02-25T07:05:31.013Z,75.50
2019-02-25T07:08:07.095Z,77.40
2019-02-25T07:10:43.001Z,77.60
2019-02-25T07:13:29.486Z,78.70
2019-02-25T07:15:59.508Z,79.30
2019-02-25T07:18:35.527Z,81.80
2019-02-25T07:21:23.996Z,80.80
2019-02-25T07:24:00.205Z,77.10
2019-02-25T07:26:32.837Z,75.90
2019-02-25T07:29:05.574Z,74.70
2019-02-25T07:31:38.281Z,68.80
2019-02-25T07:34:13.781Z,72.20
2019-02-25T07:36:55.749Z,70.60
2019-02-25T07:39:28.484Z,64.00
2019-02-25T07:42:01.450Z,59.40
2019-02-25T07:44:31.485Z,56.60
2019-02-25T07:47:13.591Z,59.50
2019-02-25T07:49:46.190Z,59.50
2019-02-25T07:52:25.427Z,51.50
2019-02-25T07:54:55.464Z,53.40
2019-02-25T07:57:31.181Z,53.80
2019-02-25T08:00:12.873Z,51.40
2019-02-25T08:02:45.655Z,47.10
2019-02-25T08:05:15.759Z,55.90
2019-02-25T08:07:48.488Z,49.10
2019-02-25T08:10:18.513Z,50.50
2019-02-25T08:12:48.816Z,49.70
2019-02-25T08:15:24.868Z,52.00
2019-02-25T08:18:00.890Z,48.10
2019-02-25T08:20:30.916Z,51.00
2019-02-25T08:23:17.571Z,50.80
2019-02-25T08:25:56.834Z,46.10
2019-02-25T08:28:26.859Z,50.30
2019-02-25T08:31:02.610Z,44.60
2019-02-25T08:33:32.625Z,45.80
2019-02-25T08:36:14.778Z,46.40
2019-02-25T08:39:00.668Z,42.90
2019-02-25T08:41:30.744Z,46.50
2019-02-25T08:44:13.006Z,40.40
2019-02-25T08:46:54.928Z,38.80
2019-02-25T08:49:30.707Z,45.00
2019-02-25T08:51:59.103Z,45.20
2019-02-25T08:54:27.492Z,45.90
2019-02-25T08:56:55.973Z,42.50
2019-02-25T08:59:24.348Z,43.50
2019-02-25T09:01:52.740Z,39.40
2019-02-25T09:04:21.204Z,42.70
2019-02-25T09:06:49.620Z,45.90
2019-02-25T09:09:17.996Z,40.60
2019-02-25T09:11:46.402Z,38.90
2019-02-25T09:14:14.794Z,35.00
2019-02-25T09:16:43.217Z,38.40
2019-02-25T09:19:11.583Z,36.00
2019-02-25T09:21:39.996Z,40.00
2019-02-25T09:24:08.369Z,36.00
2019-02-25T09:26:36.761Z,36.60
2019-02-25T09:29:05.224Z,31.00
2019-02-25T09:31:33.627Z,31.40
2019-02-25T09:34:02.324Z,34.30
2019-02-25T09:36:30.736Z,30.40
2019-02-25T09:38:59.117Z,29.20
2019-02-25T09:41:29.997Z,33.90
2019-02-25T09:43:57.620Z,29.90
2019-02-25T09:46:26.045Z,33.50
2019-02-25T09:48:54.432Z,30.00
2019-02-25T09:51:22.828Z,28.10
2019-02-25T09:53:51.223Z,26.50
2019-02-25T09:56:19.612Z,35.10
2019-02-25T09:58:48.012Z,25.10
2019-02-25T10:01:16.404Z,32.20
2019-02-25T10:03:44.803Z,29.60
2019-02-25T10:06:13.185Z,25.80
2019-02-25T10:08:41.580Z,26.30
2019-02-25T10:11:10.036Z,25.90
2019-02-25T10:13:38.500Z,24.70
2019-02-25T10:16:06.885Z,28.80
2019-02-25T10:18:35.280Z,37.70
2019-02-25T10:21:03.738Z,25.30
2019-02-25T10:23:32.388Z,24.70
2019-02-25T10:26:00.775Z,24.40
2019-02-25T10:28:29.185Z,24.10
2019-02-25T10:30:57.568Z,35.60
2019-02-25T10:33:25.980Z,27.90
2019-02-25T10:35:54.364Z,25.90
2019-02-25T10:38:22.764Z,27.50
2019-02-25T10:40:52.174Z,24.20
2019-02-25T10:43:21.580Z,22.60
2019-02-25T10:45:49.963Z,25.10
2019-02-25T10:48:19.860Z,27.30
2019-02-25T10:50:55.777Z,22.40
2019-02-25T10:53:20.379Z,23.50
2019-02-25T10:55:57.894Z,25.70
2019-02-25T10:58:26.968Z,24.00
2019-02-25T11:00:56.836Z,31.30
2019-02-25T11:03:25.236Z,24.30
2019-02-25T11:05:56.173Z,25.80
2019-02-25T11:08:23.418Z,26.00
2019-02-25T11:11:08.750Z,21.70
2019-02-25T11:13:37.143Z,25.60
2019-02-25T11:16:05.604Z,31.40
2019-02-25T11:18:33.996Z,22.40
2019-02-25T11:21:03.679Z,22.80
2019-02-25T11:23:32.515Z,20.80
2019-02-25T11:26:02.181Z,26.50
2019-02-25T11:28:31.850Z,20.70
2019-02-25T11:31:00.824Z,22.00
2019-02-25T11:33:30.250Z,27.30
2019-02-25T11:35:59.329Z,21.20
2019-02-25T11:38:28.794Z,27.10
2019-02-25T11:40:59.735Z,29.60
2019-02-25T11:43:27.962Z,20.50
2019-02-25T11:45:56.356Z,20.10
2019-02-25T11:48:24.748Z,27.10
2019-02-25T11:50:53.224Z,22.90
2019-02-25T11:53:21.671Z,21.00
2019-02-25T11:55:50.084Z,19.80
2019-02-25T11:58:18.541Z,20.20
2019-02-25T12:00:46.933Z,24.40
2019-02-25T12:03:15.317Z,23.10
2019-02-25T12:05:43.712Z,20.30
2019-02-25T12:08:12.384Z,36.80
2019-02-25T12:10:40.768Z,23.10
2019-02-25T12:13:09.159Z,27.40
2019-02-25T12:15:37.563Z,31.30
2019-02-25T12:18:05.959Z,20.40
2019-02-25T12:20:34.356Z,22.80
2019-02-25T12:23:02.746Z,23.90
2019-02-25T12:25:31.137Z,23.20
2019-02-25T12:27:59.522Z,20.20
2019-02-25T12:30:28.849Z,20.60
2019-02-25T12:32:57.228Z,28.00
2019-02-25T12:35:25.630Z,29.00
2019-02-25T12:37:54.017Z,25.30
2019-02-25T12:40:22.413Z,23.00
2019-02-25T12:42:50.790Z,26.10
2019-02-25T12:45:19.364Z,22.20
2019-02-25T12:47:47.743Z,29.50
2019-02-25T12:50:17.282Z,20.90
2019-02-25T12:52:45.668Z,26.90
2019-02-25T12:55:15.411Z,22.10
2019-02-25T12:57:43.797Z,23.00
2019-02-25T13:00:16.716Z,23.70
2019-02-25T13:02:45.096Z,21.60
2019-02-25T13:05:19.123Z,22.40
2019-02-25T13:07:47.583Z,21.00
2019-02-25T13:10:16.821Z,39.10
2019-02-25T13:12:45.269Z,22.80
2019-02-25T13:15:18.609Z,29.30
2019-02-25T13:17:47.006Z,25.00
2019-02-25T13:20:15.931Z,23.10
2019-02-25T13:22:44.320Z,25.80
2019-02-25T13:25:15.382Z,25.90
2019-02-25T13:27:44.107Z,22.20
2019-02-25T13:30:17.346Z,24.70
2019-02-25T13:32:45.848Z,22.90
2019-02-25T13:35:14.971Z,24.20
2019-02-25T13:37:44.098Z,34.00
2019-02-25T13:40:14.893Z,24.90
2019-02-25T13:42:43.429Z,33.30
2019-02-25T13:45:22.031Z,28.40
2019-02-25T13:47:50.465Z,25.90
2019-02-25T13:50:19.380Z,33.20
2019-02-25T13:52:48.532Z,26.50
2019-02-25T13:55:19.355Z,29.30
2019-02-25T13:57:47.107Z,27.00
2019-02-25T14:00:17.999Z,32.10
2019-02-25T14:02:46.618Z,26.80
2019-02-25T14:05:15.483Z,32.30
2019-02-25T14:07:43.982Z,37.20
2019-02-25T14:10:16.666Z,25.90
2019-02-25T14:12:45.193Z,27.00
2019-02-25T14:15:18.514Z,26.70
2019-02-25T14:17:46.972Z,27.00
2019-02-25T14:20:17.973Z,26.40
2019-02-25T14:22:46.368Z,23.70
2019-02-25T14:25:19.831Z,27.30
2019-02-25T14:27:48.517Z,29.00
2019-02-25T14:30:20.186Z,32.00
2019-02-25T14:32:53.012Z,30.80
2019-02-25T14:35:19.220Z,31.80
2019-02-25T14:37:47.682Z,45.70
2019-02-25T14:40:21.708Z,35.00
2019-02-25T14:42:52.011Z,26.60
2019-02-25T14:45:22.352Z,26.90
2019-02-25T14:47:55.346Z,31.60
2019-02-25T14:50:21.867Z,32.00
2019-02-25T14:52:50.613Z,29.50
2019-02-25T14:55:19.150Z,29.30
2019-02-25T14:57:47.686Z,34.80
2019-02-25T15:00:26.823Z,35.90
2019-02-25T15:02:54.947Z,39.00
2019-02-25T15:05:26.354Z,35.40
2019-02-25T15:07:54.840Z,37.70
2019-02-25T15:10:26.620Z,26.90
2019-02-25T15:12:56.556Z,30.10
2019-02-25T15:15:24.272Z,31.50
2019-02-25T15:17:52.900Z,28.60
2019-02-25T15:20:23.397Z,37.60
2019-02-25T15:22:52.624Z,47.60
2019-02-25T15:25:21.430Z,37.90
2019-02-25T15:27:50.027Z,27.50
2019-02-25T15:30:28.305Z,30.10
2019-02-25T15:32:59.035Z,31.40
2019-02-25T15:35:29.275Z,27.40
2019-02-25T15:37:57.895Z,42.90
2019-02-25T15:40:27.261Z,49.10
2019-02-25T15:43:13.338Z,37.70
2019-02-25T15:45:43.657Z,28.30
2019-02-25T15:48:20.816Z,32.60
2019-02-25T15:50:55.628Z,34.10
2019-02-25T15:53:24.899Z,36.90
2019-02-25T15:55:56.938Z,29.30
2019-02-25T15:58:23.467Z,28.70
2019-02-25T16:00:51.948Z,29.20
2019-02-25T16:03:20.876Z,40.30
2019-02-25T16:05:52.298Z,49.50
2019-02-25T16:08:21.185Z,43.60
2019-02-25T16:10:51.291Z,34.10
2019-02-25T16:13:20.565Z,30.00
2019-02-25T16:15:49.044Z,38.60
2019-02-25T16:18:17.704Z,42.30
2019-02-25T16:20:46.349Z,32.90
2019-02-25T16:23:14.943Z,30.40
2019-02-25T16:25:43.692Z,32.10
2019-02-25T16:28:14.792Z,29.80
2019-02-25T16:30:44.537Z,30.70
2019-02-25T16:33:14.348Z,31.10
2019-02-25T16:35:43.523Z,31.80
2019-02-25T16:38:13.085Z,31.70
2019-02-25T16:40:41.492Z,30.20
2019-02-25T16:43:12.651Z,30.40
2019-02-25T16:45:42.599Z,38.00
2019-02-25T16:48:10.893Z,31.50
2019-02-25T16:50:41.441Z,31.60
2019-02-25T16:53:10.898Z,31.30
2019-02-25T16:55:40.546Z,32.40
2019-02-25T16:58:12.901Z,31.90
2019-02-25T17:00:41.682Z,32.20
2019-02-25T17:03:11.158Z,31.00
2019-02-25T17:05:42.294Z,31.70
2019-02-25T17:08:12.669Z,32.00
2019-02-25T17:10:41.130Z,32.40
2019-02-25T17:13:10.419Z,31.80
2019-02-25T17:15:39.716Z,32.10
2019-02-25T17:18:09.380Z,32.40
2019-02-25T17:20:37.768Z,32.80
2019-02-25T17:23:09.363Z,33.00
2019-02-25T17:25:38.438Z,33.10
2019-02-25T17:28:08.190Z,33.70
2019-02-25T17:30:38.020Z,33.80
2019-02-25T17:33:10.011Z,34.10
2019-02-25T17:35:38.434Z,34.50
2019-02-25T17:38:06.978Z,34.70
2019-02-25T17:40:35.444Z,34.90
2019-02-25T17:43:04.040Z,34.50
2019-02-25T17:45:34.393Z,34.80
2019-02-25T17:48:05.452Z,34.50
2019-02-25T17:50:34.837Z,35.00
2019-02-25T17:53:03.703Z,35.70
2019-02-25T17:55:34.460Z,35.00
2019-02-25T17:58:03.509Z,34.50
2019-02-25T18:00:35.026Z,35.40
2019-02-25T18:03:04.480Z,34.60
2019-02-25T18:05:34.118Z,35.00
2019-02-25T18:08:05.166Z,37.80
2019-02-25T18:10:33.106Z,36.50
2019-02-25T18:13:06.017Z,37.40
2019-02-25T18:15:32.779Z,37.00
2019-02-25T18:18:01.413Z,36.30
2019-02-25T18:20:30.091Z,37.50
2019-02-25T18:22:58.777Z,36.60
2019-02-25T18:25:27.317Z,36.00
2019-02-25T18:27:55.853Z,36.80
2019-02-25T18:30:27.088Z,38.00
2019-02-25T18:32:58.309Z,37.90
2019-02-25T18:35:26.314Z,37.50
2019-02-25T18:37:54.981Z,36.30
2019-02-25T18:40:23.644Z,36.30
2019-02-25T18:42:52.123Z,36.40
2019-02-25T18:45:20.976Z,36.10
2019-02-25T18:47:50.376Z,36.60
2019-02-25T18:50:24.094Z,36.20
2019-02-25T18:52:54.637Z,36.60
2019-02-25T18:55:24.918Z,37.60
2019-02-25T18:57:54.496Z,37.80
2019-02-25T19:00:35.168Z,46.80
2019-02-25T19:03:04.779Z,43.60
2019-02-25T19:05:33.508Z,40.40
2019-02-25T19:08:03.555Z,39.10
2019-02-25T19:10:32.109Z,41.10
2019-02-25T19:13:01.137Z,40.30
2019-02-25T19:15:29.539Z,42.60
2019-02-25T19:17:57.940Z,44.20
2019-02-25T19:20:26.782Z,41.90
2019-02-25T19:22:58.139Z,42.50
2019-02-25T19:25:25.878Z,41.70
2019-02-25T19:27:56.356Z,41.20
2019-02-25T19:30:25.394Z,43.60
2019-02-25T19:32:54.643Z,45.00
2019-02-25T19:35:25.881Z,41.40
2019-02-25T19:37:53.308Z,43.50
2019-02-25T19:40:24.479Z,41.20
2019-02-25T19:42:54.189Z,41.20
2019-02-25T19:45:23.505Z,42.10
2019-02-25T19:47:52.031Z,42.10
2019-02-25T19:50:25.327Z,42.20
2019-02-25T19:52:53.605Z,41.80
2019-02-25T19:55:23.435Z,42.10
2019-02-25T19:57:52.113Z,41.60
2019-02-25T20:00:29.734Z,42.70
2019-02-25T20:03:05.631Z,42.20
2019-02-25T20:05:33.164Z,46.30
2019-02-25T20:08:01.642Z,43.50
2019-02-25T20:10:30.824Z,42.80
2019-02-25T20:12:59.279Z,48.50
2019-02-25T20:15:27.679Z,49.40
2019-02-25T20:17:56.292Z,53.60
2019-02-25T20:20:26.328Z,58.30
2019-02-25T20:22:54.729Z,51.40
2019-02-25T20:25:25.829Z,49.20
2019-02-25T20:27:55.133Z,46.70
2019-02-25T20:30:25.765Z,45.90
2019-02-25T20:32:53.805Z,46.70
2019-02-25T20:35:24.411Z,49.50
2019-02-25T20:37:53.776Z,51.90
2019-02-25T20:40:24.140Z,51.30
2019-02-25T20:42:53.601Z,50.30
2019-02-25T20:45:26.181Z,49.90
2019-02-25T20:47:57.107Z,51.40
2019-02-25T20:50:26.020Z,50.70
2019-02-25T20:52:56.087Z,49.80
2019-02-25T20:55:25.327Z,50.80
2019-02-25T20:57:54.633Z,49.30
2019-02-25T21:00:24.544Z,52.70
2019-02-25T21:02:52.928Z,56.70
2019-02-25T21:05:22.741Z,53.20
2019-02-25T21:07:53.389Z,53.00
2019-02-25T21:10:22.753Z,51.20
2019-02-25T21:12:52.987Z,54.70
2019-02-25T21:15:21.911Z,52.80
2019-02-25T21:17:51.918Z,51.30
2019-02-25T21:20:21.497Z,50.50
2019-02-25T21:22:52.933Z,49.90
2019-02-25T21:25:24.434Z,49.60
2019-02-25T21:27:51.055Z,49.50
2019-02-25T21:30:20.988Z,49.80
2019-02-25T21:32:50.144Z,49.90
2019-02-25T21:35:23.532Z,50.00
2019-02-25T21:37:52.329Z,50.30
2019-02-25T21:40:27.206Z,50.00
2019-02-25T21:42:56.661Z,50.10
2019-02-25T21:45:27.079Z,50.20
2019-02-25T21:47:56.481Z,50.10
2019-02-25T21:50:28.391Z,55.30
2019-02-25T21:52:55.500Z,51.60
2019-02-25T21:55:26.187Z,52.00
2019-02-25T21:57:55.021Z,51.20
2019-02-25T22:00:27.162Z,52.20
2019-02-25T22:02:55.781Z,51.60
2019-02-25T22:05:24.156Z,52.20
2019-02-25T22:07:54.761Z,52.00
2019-02-25T22:10:22.668Z,52.50
2019-02-25T22:12:51.052Z,52.60
2019-02-25T22:15:22.128Z,51.60
2019-02-25T22:17:50.655Z,53.60
2019-02-25T22:20:21.785Z,51.80
2019-02-25T22:22:52.287Z,53.60
2019-02-25T22:25:24.263Z,52.80
2019-02-25T22:27:52.651Z,51.90
2019-02-25T22:30:21.043Z,53.10
2019-02-25T22:32:49.442Z,54.00
2019-02-25T22:35:17.817Z,53.00
2019-02-25T22:37:49.348Z,52.50
2019-02-25T22:40:17.494Z,52.80
2019-02-25T22:42:49.354Z,54.50
2019-02-25T22:45:22.725Z,53.30
2019-02-25T22:47:51.120Z,53.40
2019-02-25T22:50:19.504Z,54.00
2019-02-25T22:52:51.617Z,53.70
2019-02-25T22:55:20.334Z,56.50
2019-02-25T22:57:50.921Z,55.00
2019-02-25T23:00:36.548Z,54.60
2019-02-25T23:03:05.503Z,55.90
2019-02-25T23:05:33.892Z,56.50
2019-02-25T23:08:02.577Z,56.70
2019-02-25T23:10:31.026Z,55.30
2019-02-25T23:12:59.423Z,55.90
2019-02-25T23:15:30.293Z,56.40
2019-02-25T23:18:04.900Z,57.30
2019-02-25T23:20:29.578Z,55.20
2019-02-25T23:23:00.089Z,55.60
2019-02-25T23:25:28.897Z,56.60
2019-02-25T23:27:58.510Z,57.40
2019-02-25T23:30:27.705Z,56.70
2019-02-25T23:32:56.092Z,56.50
2019-02-25T23:35:25.397Z,56.90
2019-02-25T23:37:55.997Z,54.70
2019-02-25T23:40:24.126Z,54.40
2019-02-25T23:42:52.517Z,56.90
2019-02-25T23:45:23.061Z,56.80
2019-02-25T23:47:55.373Z,54.80
2019-02-25T23:50:21.127Z,54.30
2019-02-25T23:52:49.533Z,57.00
2019-02-25T23:55:19.619Z,55.30
2019-02-25T23:57:48.025Z,55.30
